createdAt,value
2023-01-15T00:02:00.845Z,99914.09
2023-01-15T00:04:30.054Z,99915.54
2023-01-15T00:06:59.276Z,99926.48
2023-01-15T00:09:28.697Z,99920.08
2023-01-15T00:11:57.976Z,99920.60
2023-01-15T00:14:27.214Z,99915.73
2023-01-15T00:16:56.465Z,99919.66
2023-01-15T00:19:25.643Z,99918.95
2023-01-15T00:21:54.880Z,99917.59
2023-01-15T00:24:42.306Z,99921.80
2023-01-15T00:27:30.247Z,99906.36
2023-01-15T00:29:59.474Z,99916.34
2023-01-15T00:32:29.919Z,99916.80
2023-01-15T00:35:02.574Z,99906.34
2023-01-15T00:37:31.805Z,99912.90
2023-01-15T00:40:01.109Z,99911.59
2023-01-15T00:42:30.385Z,99912.56
2023-01-15T00:45:01.387Z,99922.64
2023-01-15T00:47:30.691Z,99919.19
2023-01-15T00:49:59.871Z,99920.27
2023-01-15T00:52:29.166Z,99922.51
2023-01-15T00:54:59.016Z,99925.03
2023-01-15T00:57:29.924Z,99931.92
2023-01-15T00:59:59.206Z,99927.16
2023-01-15T01:02:28.457Z,99926.33
2023-01-15T01:04:57.714Z,99936.46
2023-01-15T01:07:27.286Z,99929.70
2023-01-15T01:09:56.648Z,99936.30
2023-01-15T01:12:26.263Z,99945.08
2023-01-15T01:14:56.719Z,99936.55
2023-01-15T01:17:26.021Z,99941.66
2023-01-15T01:19:55.210Z,99933.09
2023-01-15T01:22:24.757Z,99935.96
2023-01-15T01:24:53.959Z,99941.41
2023-01-15T01:27:25.083Z,99930.01
2023-01-15T01:29:54.293Z,99935.13
2023-01-15T01:32:23.832Z,99936.22
2023-01-15T01:34:53.087Z,99929.72
2023-01-15T01:37:22.353Z,99945.00
2023-01-15T01:39:51.802Z,99944.88
2023-01-15T01:42:21.225Z,99947.95
2023-01-15T01:44:54.282Z,99932.37
2023-01-15T01:47:25.695Z,99936.09
2023-01-15T01:50:04.513Z,99935.76
2023-01-15T01:52:37.149Z,99947.06
2023-01-15T01:55:07.883Z,99953.35
2023-01-15T01:57:37.721Z,99943.39
2023-01-15T02:00:08.212Z,99946.38
2023-01-15T02:02:40.270Z,99939.25
2023-01-15T02:05:10.933Z,99939.04
2023-01-15T02:07:40.188Z,99940.01
2023-01-15T02:10:12.853Z,99939.05
2023-01-15T02:12:45.697Z,99933.59
2023-01-15T02:15:20.441Z,99930.77
2023-01-15T02:18:17.558Z,99936.05
2023-01-15T02:20:55.433Z,99928.12
2023-01-15T02:23:50.385Z,99933.94
2023-01-15T02:26:29.316Z,99937.52
2023-01-15T02:28:59.951Z,99931.58
2023-01-15T02:31:35.506Z,99920.65
2023-01-15T02:34:13.729Z,99925.20
2023-01-15T02:36:46.543Z,99926.16
2023-01-15T02:39:19.458Z,99923.08
2023-01-15T02:41:54.554Z,99924.98
2023-01-15T02:44:26.514Z,99922.61
2023-01-15T02:46:57.988Z,99931.86
2023-01-15T02:49:28.869Z,99933.97
2023-01-15T02:52:04.997Z,99929.24
2023-01-15T02:54:37.840Z,99922.55
2023-01-15T02:57:07.166Z,99916.48
2023-01-15T02:59:40.503Z,99915.33
2023-01-15T03:02:19.091Z,99915.58
2023-01-15T03:04:51.761Z,99914.86
2023-01-15T03:07:26.368Z,99919.25
2023-01-15T03:09:56.899Z,99920.44
2023-01-15T03:12:37.080Z,99923.77
2023-01-15T03:15:20.333Z,99928.77
2023-01-15T03:17:52.820Z,99929.52
2023-01-15T03:20:22.629Z,99923.33
2023-01-15T03:22:55.419Z,99927.72
2023-01-15T03:25:31.263Z,99922.14
2023-01-15T03:28:02.292Z,99923.80
2023-01-15T03:30:32.034Z,99922.98
2023-01-15T03:33:01.265Z,99913.46
2023-01-15T03:35:52.928Z,99928.90
2023-01-15T03:38:35.947Z,99907.67
2023-01-15T03:41:06.613Z,99919.69
2023-01-15T03:43:54.787Z,99917.91
2023-01-15T03:46:34.355Z,99922.52
2023-01-15T03:49:28.906Z,99911.13
2023-01-15T03:52:03.812Z,99909.59
2023-01-15T03:54:38.161Z,99909.13
2023-01-15T03:57:16.474Z,99902.34
2023-01-15T03:59:51.789Z,99916.73
2023-01-15T04:02:22.563Z,99909.00
2023-01-15T04:04:53.043Z,99904.86
2023-01-15T04:07:23.894Z,99915.66
2023-01-15T04:09:53.659Z,99904.38
2023-01-15T04:12:22.924Z,99906.86
2023-01-15T04:14:53.826Z,99899.64
2023-01-15T04:17:23.921Z,99901.31
2023-01-15T04:19:53.286Z,99897.76
2023-01-15T04:22:23.006Z,99899.16
2023-01-15T04:24:53.874Z,99906.19
2023-01-15T04:27:23.079Z,99897.53
2023-01-15T04:29:52.302Z,99909.64
2023-01-15T04:32:21.532Z,99903.20
2023-01-15T04:34:51.162Z,99898.82
2023-01-15T04:37:20.567Z,99898.36
2023-01-15T04:39:49.754Z,99901.77
2023-01-15T04:42:36.863Z,99905.11
2023-01-15T04:45:06.625Z,99906.28
2023-01-15T04:47:36.542Z,99906.91
2023-01-15T04:50:06.231Z,99901.19
2023-01-15T04:52:35.667Z,99902.15
2023-01-15T04:55:06.181Z,99909.37
2023-01-15T04:57:36.973Z,99907.48
2023-01-15T05:00:07.221Z,99911.52
2023-01-15T05:02:36.530Z,99896.53
2023-01-15T05:05:06.734Z,99900.55
2023-01-15T05:07:36.071Z,99902.13
2023-01-15T05:10:05.411Z,99894.38
2023-01-15T05:12:34.699Z,99895.81
2023-01-15T05:15:04.240Z,99885.98
2023-01-15T05:17:34.287Z,99878.73
2023-01-15T05:20:03.819Z,99880.52
2023-01-15T05:22:34.870Z,99884.55
2023-01-15T05:25:04.829Z,99894.87
2023-01-15T05:27:34.061Z,99884.92
2023-01-15T05:30:03.626Z,99885.88
2023-01-15T05:32:33.095Z,99889.92
2023-01-15T05:35:02.428Z,99888.85
2023-01-15T05:37:32.327Z,99884.81
2023-01-15T05:40:01.800Z,99890.64
2023-01-15T05:42:31.049Z,99886.97
2023-01-15T05:45:00.279Z,99880.69
2023-01-15T05:47:29.487Z,99886.37
2023-01-15T05:49:58.856Z,99884.00
2023-01-15T05:52:28.097Z,99879.86
2023-01-15T05:54:57.822Z,99882.25
2023-01-15T05:57:27.305Z,99883.55
2023-01-15T05:59:56.969Z,99882.84
2023-01-15T06:02:26.446Z,99892.56
2023-01-15T06:04:55.628Z,99885.67
2023-01-15T06:07:25.197Z,99884.61
2023-01-15T06:09:54.429Z,99892.32
2023-01-15T06:12:23.621Z,99893.30
2023-01-15T06:14:52.831Z,99894.93
2023-01-15T06:17:22.034Z,99904.80
2023-01-15T06:19:51.232Z,99905.84
2023-01-15T06:22:20.612Z,99917.25
2023-01-15T06:24:49.870Z,99908.72
2023-01-15T06:27:19.066Z,99917.25
2023-01-15T06:29:48.278Z,99915.22
2023-01-15T06:32:17.936Z,99918.42
2023-01-15T06:34:47.151Z,99912.49
2023-01-15T06:37:16.853Z,99914.16
2023-01-15T06:39:46.065Z,99907.39
2023-01-15T06:42:33.299Z,99908.83
2023-01-15T06:45:20.066Z,99903.81
2023-01-15T06:47:49.897Z,99912.61
2023-01-15T06:50:19.184Z,99920.90
2023-01-15T06:52:48.603Z,99934.32
2023-01-15T06:55:18.625Z,99928.05
2023-01-15T06:57:48.344Z,99927.68
2023-01-15T07:00:18.200Z,99928.27
2023-01-15T07:02:47.389Z,99923.89
2023-01-15T07:05:16.726Z,99921.88
2023-01-15T07:07:45.959Z,99917.37
2023-01-15T07:10:15.246Z,99923.73
2023-01-15T07:12:44.461Z,99927.89
2023-01-15T07:15:13.682Z,99928.12
2023-01-15T07:17:43.366Z,99932.38
2023-01-15T07:20:13.418Z,99932.61
2023-01-15T07:22:42.884Z,99934.95
2023-01-15T07:25:12.108Z,99928.39
2023-01-15T07:27:41.593Z,99931.50
2023-01-15T07:30:11.882Z,99922.45
2023-01-15T07:32:41.919Z,99927.32
2023-01-15T07:35:11.649Z,99909.75
2023-01-15T07:37:41.257Z,99919.84
2023-01-15T07:40:12.208Z,99909.37
2023-01-15T07:42:59.407Z,99916.63
2023-01-15T07:45:47.659Z,99911.28
2023-01-15T07:48:34.981Z,99919.69
2023-01-15T07:51:04.256Z,99915.05
2023-01-15T07:53:33.791Z,99918.50
2023-01-15T07:56:03.780Z,99927.34
2023-01-15T07:58:33.605Z,99920.13
2023-01-15T08:01:03.267Z,99922.74
2023-01-15T08:03:33.324Z,99946.09
2023-01-15T08:06:02.861Z,99929.38
2023-01-15T08:08:32.072Z,99936.22
2023-01-15T08:11:21.246Z,99932.83
2023-01-15T08:14:08.257Z,99934.82
2023-01-15T08:16:38.252Z,99938.50
2023-01-15T08:19:07.525Z,99932.72
2023-01-15T08:21:36.884Z,99937.98
2023-01-15T08:24:08.897Z,99941.24
2023-01-15T08:26:38.218Z,99940.14
2023-01-15T08:29:07.699Z,99936.61
2023-01-15T08:31:37.052Z,99927.63
2023-01-15T08:34:06.293Z,99925.63
2023-01-15T08:36:35.813Z,99937.86
2023-01-15T08:39:05.980Z,99936.44
2023-01-15T08:41:35.199Z,99927.89
2023-01-15T08:44:04.573Z,99941.55
2023-01-15T08:46:34.170Z,99934.41
2023-01-15T08:49:05.228Z,99924.47
2023-01-15T08:51:34.555Z,99934.34
2023-01-15T08:54:04.039Z,99932.66
2023-01-15T08:56:33.657Z,99942.29
2023-01-15T08:59:08.146Z,99937.53
2023-01-15T09:01:38.242Z,99942.63
2023-01-15T09:04:07.591Z,99950.50
2023-01-15T09:06:36.949Z,99953.58
2023-01-15T09:09:06.222Z,99943.36
2023-01-15T09:11:37.147Z,99947.64
2023-01-15T09:14:06.523Z,99934.45
2023-01-15T09:16:37.508Z,99937.19
2023-01-15T09:19:07.909Z,99931.14
2023-01-15T09:21:37.452Z,99939.91
2023-01-15T09:24:07.409Z,99940.87
2023-01-15T09:26:40.855Z,99938.97
2023-01-15T09:29:10.870Z,99930.64
2023-01-15T09:31:40.381Z,99923.72
2023-01-15T09:34:10.784Z,99918.94
2023-01-15T09:36:41.398Z,99936.98
2023-01-15T09:39:12.136Z,99928.09
2023-01-15T09:42:08.884Z,99929.02
2023-01-15T09:45:01.649Z,99936.80
2023-01-15T09:47:37.102Z,99951.65
2023-01-15T09:50:15.682Z,99954.02
2023-01-15T09:53:17.410Z,99954.36
2023-01-15T09:55:51.208Z,99939.77
2023-01-15T09:58:23.906Z,99934.99
2023-01-15T10:00:54.163Z,99930.83
2023-01-15T10:03:37.170Z,99935.91
2023-01-15T10:06:18.792Z,99933.66
2023-01-15T10:08:52.237Z,99948.77
2023-01-15T10:11:26.252Z,99951.68
2023-01-15T10:14:00.007Z,99974.33
2023-01-15T10:16:33.759Z,99941.60
2023-01-15T10:19:04.345Z,99967.23
2023-01-15T10:21:50.035Z,99963.99
2023-01-15T10:24:31.243Z,99953.29
2023-01-15T10:27:01.126Z,99946.38
2023-01-15T10:29:42.079Z,99969.78
2023-01-15T10:32:32.322Z,99946.90
2023-01-15T10:35:32.449Z,99948.84
2023-01-15T10:38:36.382Z,99953.47
2023-01-15T10:41:25.481Z,99956.50
2023-01-15T10:44:15.572Z,99943.38
2023-01-15T10:46:47.924Z,99947.26
2023-01-15T10:49:19.184Z,99975.72
2023-01-15T10:51:59.394Z,99962.87
2023-01-15T10:54:34.612Z,99960.09
2023-01-15T10:57:12.884Z,99958.73
2023-01-15T10:59:50.937Z,99955.18
2023-01-15T11:02:26.830Z,99949.49
2023-01-15T11:04:56.308Z,99940.86
2023-01-15T11:07:31.560Z,99946.25
2023-01-15T11:10:03.177Z,99932.36
2023-01-15T11:12:50.119Z,99972.98
2023-01-15T11:15:42.051Z,99945.41
2023-01-15T11:18:34.321Z,99936.05
2023-01-15T11:21:03.939Z,99955.33
2023-01-15T11:23:36.182Z,99948.71
2023-01-15T11:26:05.653Z,99960.66
2023-01-15T11:28:43.579Z,99966.65
2023-01-15T11:31:13.787Z,99956.31
2023-01-15T11:34:03.036Z,99966.06
2023-01-15T11:36:33.393Z,99958.95
2023-01-15T11:39:03.118Z,99959.61
2023-01-15T11:41:54.265Z,99958.16
2023-01-15T11:44:42.095Z,99974.04
2023-01-15T11:47:26.115Z,99955.30
2023-01-15T11:50:14.596Z,99950.84
2023-01-15T11:52:51.916Z,99959.27
2023-01-15T11:55:23.195Z,99937.77
2023-01-15T11:57:52.571Z,99956.34
2023-01-15T12:00:30.046Z,99958.45
2023-01-15T12:03:02.423Z,99950.57
2023-01-15T12:05:35.192Z,99955.02
2023-01-15T12:08:07.657Z,99947.86
2023-01-15T12:10:58.015Z,99959.27
2023-01-15T12:13:33.213Z,99962.08
2023-01-15T12:16:24.929Z,99955.82
2023-01-15T12:19:02.375Z,99968.58
2023-01-15T12:21:43.589Z,99941.75
2023-01-15T12:24:34.779Z,99946.30
2023-01-15T12:27:13.112Z,99951.03
2023-01-15T12:29:51.187Z,99944.02
2023-01-15T12:32:23.969Z,99925.13
2023-01-15T12:35:02.127Z,99935.13
2023-01-15T12:37:37.101Z,99944.64
2023-01-15T12:40:24.209Z,99941.54
2023-01-15T12:43:12.640Z,99947.05
2023-01-15T12:45:50.734Z,99952.03
2023-01-15T12:48:25.689Z,99952.53
2023-01-15T12:50:57.738Z,99947.64
2023-01-15T12:53:32.817Z,99928.68
2023-01-15T12:56:07.853Z,99945.16
2023-01-15T12:58:43.353Z,99956.59
2023-01-15T13:01:16.036Z,99952.20
2023-01-15T13:03:54.519Z,99943.94
2023-01-15T13:06:26.622Z,99952.46
2023-01-15T13:09:04.628Z,99953.52
2023-01-15T13:11:34.097Z,99958.75
2023-01-15T13:14:03.831Z,99961.06
2023-01-15T13:16:53.562Z,99945.36
2023-01-15T13:19:35.031Z,99952.75
2023-01-15T13:22:10.120Z,99945.66
2023-01-15T13:24:53.509Z,99950.86
2023-01-15T13:27:28.437Z,99954.70
2023-01-15T13:30:03.946Z,99952.46
2023-01-15T13:32:39.341Z,99947.77
2023-01-15T13:35:14.353Z,99932.87
2023-01-15T13:37:46.200Z,99948.11
2023-01-15T13:40:36.913Z,99961.66
2023-01-15T13:43:08.477Z,99975.52
2023-01-15T13:45:39.856Z,99958.95
2023-01-15T13:48:23.280Z,99974.38
2023-01-15T13:51:00.109Z,99969.45
2023-01-15T13:53:41.382Z,99968.39
2023-01-15T13:56:15.218Z,99980.26
2023-01-15T13:59:01.830Z,99986.67
2023-01-15T14:01:38.113Z,99970.73
2023-01-15T14:04:18.392Z,99993.64
2023-01-15T14:06:49.375Z,99976.89
2023-01-15T14:09:25.006Z,99979.88
2023-01-15T14:12:15.287Z,99977.64
2023-01-15T14:15:06.055Z,99973.75
2023-01-15T14:17:53.597Z,99972.32
2023-01-15T14:20:41.513Z,99976.86
2023-01-15T14:23:32.113Z,99979.75
2023-01-15T14:26:19.478Z,99986.90
2023-01-15T14:29:00.630Z,99988.53
2023-01-15T14:31:51.142Z,99981.52
2023-01-15T14:34:26.955Z,99993.19
2023-01-15T14:37:08.069Z,99987.45
2023-01-15T14:39:52.556Z,99984.21
2023-01-15T14:42:45.908Z,99983.93
2023-01-15T14:45:21.000Z,100006.00
2023-01-15T14:47:52.635Z,99999.67
2023-01-15T14:50:34.802Z,100012.42
2023-01-15T14:53:16.291Z,100008.87
2023-01-15T14:55:48.739Z,99999.93
2023-01-15T14:58:38.527Z,100011.02
2023-01-15T15:01:20.236Z,100022.32
2023-01-15T15:03:58.315Z,100021.45
2023-01-15T15:06:28.983Z,100018.70
2023-01-15T15:09:03.230Z,100021.91
2023-01-15T15:12:06.512Z,100022.16
2023-01-15T15:14:37.411Z,100028.64
2023-01-15T15:17:09.921Z,100033.25
2023-01-15T15:19:41.697Z,100028.52
2023-01-15T15:22:13.817Z,100040.90
2023-01-15T15:24:51.312Z,100024.41
2023-01-15T15:27:23.239Z,100028.92
2023-01-15T15:29:52.546Z,100032.38
2023-01-15T15:32:23.728Z,100039.04
2023-01-15T15:34:54.666Z,100032.11
2023-01-15T15:37:28.679Z,100037.09
2023-01-15T15:40:17.834Z,100041.53
2023-01-15T15:43:13.897Z,100025.62
2023-01-15T15:46:03.809Z,100042.01
2023-01-15T15:48:45.337Z,100040.11
2023-01-15T15:51:32.488Z,100031.70
2023-01-15T15:54:26.406Z,100040.24
2023-01-15T15:57:09.360Z,100028.95
2023-01-15T15:59:51.558Z,100026.25
2023-01-15T16:02:30.900Z,100024.08
2023-01-15T16:05:01.931Z,100025.84
2023-01-15T16:07:37.224Z,100036.06
2023-01-15T16:10:12.642Z,100035.45
2023-01-15T16:12:45.060Z,100031.42
2023-01-15T16:15:19.948Z,100036.64
2023-01-15T16:17:50.512Z,100040.33
2023-01-15T16:20:21.080Z,100050.55
2023-01-15T16:22:55.815Z,100045.67
2023-01-15T16:25:37.146Z,100045.41
2023-01-15T16:28:06.753Z,100043.61
2023-01-15T16:30:36.289Z,100045.03
2023-01-15T16:33:07.623Z,100043.96
2023-01-15T16:35:37.535Z,100035.29
2023-01-15T16:38:08.843Z,100043.61
2023-01-15T16:40:41.165Z,100039.58
2023-01-15T16:43:14.999Z,100051.29
2023-01-15T16:46:07.667Z,100044.77
2023-01-15T16:48:40.028Z,100046.68
2023-01-15T16:51:27.395Z,100042.50
2023-01-15T16:53:56.718Z,100057.32
2023-01-15T16:56:38.050Z,100044.49
2023-01-15T16:59:18.491Z,100041.99
2023-01-15T17:01:48.853Z,100044.84
2023-01-15T17:04:40.048Z,100050.74
2023-01-15T17:07:28.516Z,100049.88
2023-01-15T17:10:00.608Z,100056.13
2023-01-15T17:12:31.803Z,100051.30
2023-01-15T17:15:22.523Z,100057.82
2023-01-15T17:17:52.878Z,100055.78
2023-01-15T17:20:25.379Z,100062.18
2023-01-15T17:22:54.135Z,100068.31
2023-01-15T17:25:32.148Z,100061.56
2023-01-15T17:28:02.687Z,100065.59
2023-01-15T17:30:33.205Z,100062.25
2023-01-15T17:33:04.624Z,100056.45
2023-01-15T17:35:38.677Z,100059.64
2023-01-15T17:38:10.268Z,100063.86
2023-01-15T17:40:40.328Z,100063.15
2023-01-15T17:43:15.208Z,100057.70
2023-01-15T17:45:44.581Z,100061.63
2023-01-15T17:48:14.474Z,100059.73
2023-01-15T17:50:43.869Z,100067.50
2023-01-15T17:53:13.267Z,100058.80
2023-01-15T17:56:00.675Z,100063.41
2023-01-15T17:58:47.695Z,100056.98
2023-01-15T18:01:38.634Z,100055.13
2023-01-15T18:04:34.741Z,100054.05
2023-01-15T18:07:04.462Z,100045.61
2023-01-15T18:09:35.775Z,100046.64
2023-01-15T18:12:05.819Z,100036.97
2023-01-15T18:14:35.545Z,100049.05
2023-01-15T18:17:04.932Z,100035.48
2023-01-15T18:19:35.079Z,100044.44
2023-01-15T18:22:04.457Z,100049.30
2023-01-15T18:24:34.000Z,100037.66
2023-01-15T18:27:03.472Z,100052.12
2023-01-15T18:29:32.805Z,100042.36
2023-01-15T18:32:02.036Z,100048.45
2023-01-15T18:34:31.469Z,100049.17
2023-01-15T18:37:00.834Z,100044.17
2023-01-15T18:39:30.663Z,100050.30
2023-01-15T18:42:01.722Z,100049.08
2023-01-15T18:44:48.993Z,100054.11
2023-01-15T18:47:18.653Z,100042.36
2023-01-15T18:49:52.055Z,100045.01
2023-01-15T18:52:39.562Z,100043.14
2023-01-15T18:55:09.414Z,100032.20
2023-01-15T18:57:38.984Z,100025.62
2023-01-15T19:00:09.240Z,100023.80
2023-01-15T19:02:38.767Z,100026.61
2023-01-15T19:05:10.538Z,100022.42
2023-01-15T19:07:41.024Z,100023.83
2023-01-15T19:10:12.175Z,100015.25
2023-01-15T19:12:41.476Z,100008.80
2023-01-15T19:15:32.169Z,100009.48
2023-01-15T19:18:18.920Z,100012.97
2023-01-15T19:20:49.218Z,100003.29
2023-01-15T19:23:18.466Z,100005.36
2023-01-15T19:25:52.108Z,100001.28
2023-01-15T19:28:22.464Z,99999.41
2023-01-15T19:31:09.767Z,99988.97
2023-01-15T19:33:39.124Z,99987.45
2023-01-15T19:36:08.779Z,99983.46
2023-01-15T19:38:39.637Z,99979.20
2023-01-15T19:41:33.265Z,99979.28
2023-01-15T19:44:20.679Z,99989.70
2023-01-15T19:47:08.043Z,99971.36
2023-01-15T19:49:56.176Z,99964.87
2023-01-15T19:52:38.249Z,99964.20
2023-01-15T19:55:10.789Z,99956.50
2023-01-15T19:57:39.368Z,99961.48
2023-01-15T20:00:10.726Z,99958.89
2023-01-15T20:02:40.296Z,99954.41
2023-01-15T20:05:10.603Z,99954.19
2023-01-15T20:07:40.003Z,99948.73
2023-01-15T20:10:11.851Z,99942.92
2023-01-15T20:12:59.887Z,99942.80
2023-01-15T20:15:29.745Z,99932.87
2023-01-15T20:17:59.536Z,99924.33
2023-01-15T20:20:29.029Z,99918.27
2023-01-15T20:23:00.086Z,99909.88
2023-01-15T20:25:30.745Z,99901.60
2023-01-15T20:28:00.624Z,99895.54
2023-01-15T20:30:30.766Z,99888.42
2023-01-15T20:33:00.313Z,99892.09
2023-01-15T20:35:34.356Z,99886.53
2023-01-15T20:38:03.729Z,99879.75
2023-01-15T20:40:33.105Z,99870.05
2023-01-15T20:43:20.411Z,99871.70
2023-01-15T20:45:51.497Z,99864.83
2023-01-15T20:48:38.483Z,99863.30
2023-01-15T20:51:14.003Z,99858.33
2023-01-15T20:53:43.714Z,99851.81
2023-01-15T20:56:15.372Z,99842.93
2023-01-15T20:58:44.774Z,99836.91
2023-01-15T21:01:14.352Z,99838.09
2023-01-15T21:03:44.085Z,99831.47
2023-01-15T21:06:13.356Z,99819.63
2023-01-15T21:08:44.920Z,99817.48
2023-01-15T21:11:14.329Z,99815.49
2023-01-15T21:13:45.144Z,99811.92
2023-01-15T21:16:16.490Z,99806.37
2023-01-15T21:18:48.285Z,99803.65
2023-01-15T21:21:19.595Z,99805.22
2023-01-15T21:23:49.174Z,99796.81
2023-01-15T21:26:19.025Z,99805.61
2023-01-15T21:28:48.452Z,99794.22
2023-01-15T21:31:17.884Z,99794.48
2023-01-15T21:33:47.170Z,99788.91
2023-01-15T21:36:16.847Z,99794.13
2023-01-15T21:38:52.150Z,99785.10
2023-01-15T21:41:27.280Z,99783.34
2023-01-15T21:44:14.007Z,99775.52
2023-01-15T21:46:43.376Z,99769.09
2023-01-15T21:49:12.985Z,99766.13
2023-01-15T21:51:42.156Z,99766.02
2023-01-15T21:54:11.385Z,99759.37
2023-01-15T21:56:40.704Z,99759.02
2023-01-15T21:59:13.961Z,99750.36
2023-01-15T22:01:43.654Z,99741.00
2023-01-15T22:04:13.440Z,99741.97
2023-01-15T22:06:42.695Z,99741.47
2023-01-15T22:09:11.925Z,99734.72
2023-01-15T22:11:44.051Z,99729.16
2023-01-15T22:14:16.018Z,99729.50
2023-01-15T22:16:46.415Z,99711.84
2023-01-15T22:19:20.224Z,99717.30
2023-01-15T22:21:51.585Z,99716.23
2023-01-15T22:24:22.123Z,99712.57
2023-01-15T22:26:53.285Z,99706.41
2023-01-15T22:29:25.690Z,99704.73
2023-01-15T22:31:55.397Z,99697.73
2023-01-15T22:34:27.428Z,99702.95
2023-01-15T22:36:56.937Z,99706.64
2023-01-15T22:39:27.016Z,99697.52
2023-01-15T22:42:14.800Z,99698.35
2023-01-15T22:44:45.511Z,99693.96
2023-01-15T22:47:15.160Z,99702.48
2023-01-15T22:49:44.740Z,99696.47
2023-01-15T22:52:14.199Z,99699.30
2023-01-15T22:54:45.181Z,99696.45
2023-01-15T22:57:16.275Z,99693.96
2023-01-15T22:59:45.902Z,99698.70
2023-01-15T23:02:15.762Z,99697.29
2023-01-15T23:04:45.150Z,99702.01
2023-01-15T23:07:14.692Z,99695.38
2023-01-15T23:09:43.931Z,99689.47
2023-01-15T23:12:13.315Z,99685.66
2023-01-15T23:14:42.745Z,99682.23
2023-01-15T23:17:11.962Z,99678.91
2023-01-15T23:19:41.564Z,99676.06
2023-01-15T23:22:11.926Z,99676.44
2023-01-15T23:24:41.683Z,99678.67
2023-01-15T23:27:10.941Z,99681.27
2023-01-15T23:29:40.888Z,99672.16
2023-01-15T23:32:10.073Z,99681.50
2023-01-15T23:34:39.629Z,99681.97
2023-01-15T23:37:08.822Z,99676.88
2023-01-15T23:39:38.073Z,99673.08
2023-01-15T23:42:25.426Z,99661.23
2023-01-15T23:45:12.466Z,99656.64
2023-01-15T23:47:41.679Z,99648.80
2023-01-15T23:50:11.621Z,99642.64
2023-01-15T23:52:41.152Z,99640.97
2023-01-15T23:55:11.378Z,99643.20
2023-01-15T23:57:40.578Z,99632.09
